Time,TemperatureF,DewpointF,PressureIn,WindDirection,WindDirectionDegrees,WindSpeedMPH,WindSpeedGustMPH,Humidity,HourlyPrecipIn,Conditions,Clouds,dailyrainin,SolarRadiationWatts/m^2,SoftwareType,DateUTC
2013-02-09 00:00:00,42.1,26.7,29.94,West,269,4.0,11.0,54,0.00,,,0.68,0.00,VWS V14.01,2013-02-09 05:00:00,
2013-02-09 00:02:00,42.1,26.7,29.94,WNW,302,10.0,11.0,54,0.00,,,0.00,0.00,VWS V14.01,2013-02-09 05:02:00,
2013-02-09 00:07:00,42.1,26.7,29.94,WNW,287,5.0,9.0,54,0.00,,,0.00,0.00,VWS V14.01,2013-02-09 05:07:00,
2013-02-09 00:12:00,41.9,26.9,29.94,WSW,245,0.0,4.0,55,0.00,,,0.00,0.00,VWS V14.01,2013-02-09 05:12:00,
2013-02-09 00:17:00,41.8,26.8,29.94,WNW,288,5.0,5.0,55,0.00,,,0.00,0.00,VWS V14.01,2013-02-09 05:17:00,
2013-02-09 00:22:00,41.6,26.6,29.94,NW,307,3.0,9.0,55,0.00,,,0.00,0.00,VWS V14.01,2013-02-09 05:22:00,
2013-02-09 00:27:00,41.5,26.5,29.94,West,279,7.0,9.0,55,0.00,,,0.00,0.00,VWS V14.01,2013-02-09 05:27:00,
2013-02-09 00:32:00,41.3,26.4,29.94,WNW,302,5.0,9.0,55,0.00,,,0.00,0.00,VWS V14.01,2013-02-09 05:32:00,
2013-02-09 00:37:00,41.3,26.4,29.94,WNW,282,0.0,4.0,55,0.00,,,0.00,0.00,VWS V14.01,2013-02-09 05:37:00,
2013-02-09 00:42:00,41.2,26.7,29.94,NW,311,5.0,6.0,56,0.00,,,0.00,0.00,VWS V14.01,2013-02-09 05:42:00,
2013-02-09 00:47:00,41.1,26.2,29.94,NW,315,5.0,15.0,55,0.00,,,0.00,0.00,VWS V14.01,2013-02-09 05:47:00,
2013-02-09 00:52:00,41.1,26.6,29.94,West,272,2.0,2.0,56,0.00,,,0.00,0.00,VWS V14.01,2013-02-09 05:52:00,
2013-02-09 00:57:00,41.1,26.6,29.94,NNW,347,4.0,4.0,56,0.00,,,0.00,0.00,VWS V14.01,2013-02-09 05:57:00,
2013-02-09 01:02:00,40.8,26.3,29.94,NNW,333,3.0,6.0,56,0.00,,,0.00,0.00,VWS V14.01,2013-02-09 06:02:00,
2013-02-09 01:07:00,40.6,26.6,29.94,NNW,333,0.0,0.0,57,0.00,,,0.00,0.00,VWS V14.01,2013-02-09 06:07:00,
2013-02-09 01:12:00,40.3,26.7,29.94,NNW,333,0.0,0.0,58,0.00,,,0.00,0.00,VWS V14.01,2013-02-09 06:12:00,
2013-02-09 01:17:00,39.9,26.8,29.95,WNW,289,0.0,0.0,59,0.00,,,0.00,0.00,VWS V14.01,2013-02-09 06:17:00,
2013-02-09 01:22:00,39.6,26.5,29.95,North,355,0.0,0.0,59,0.00,,,0.00,0.00,VWS V14.01,2013-02-09 06:22:00,
2013-02-09 01:27:00,39.3,26.6,29.95,North,355,0.0,0.0,60,0.00,,,0.00,0.00,VWS V14.01,2013-02-09 06:27:00,
2013-02-09 01:32:00,39.1,26.4,29.96,North,355,0.0,0.0,60,0.00,,,0.00,0.00,VWS V14.01,2013-02-09 06:32:00,
2013-02-09 01:37:00,38.6,26.3,29.96,North,355,0.0,0.0,61,0.00,,,0.00,0.00,VWS V14.01,2013-02-09 06:37:00,
2013-02-09 01:42:00,38.2,26.3,29.96,North,355,2.0,2.0,62,0.00,,,0.00,0.00,VWS V14.01,2013-02-09 06:42:00,
2013-02-09 01:47:00,37.8,26.4,29.97,North,355,0.0,2.0,63,0.00,,,0.00,0.00,VWS V14.01,2013-02-09 06:47:00,
2013-02-09 01:52:00,37.5,26.5,29.97,North,355,0.0,0.0,64,0.00,,,0.00,0.00,VWS V14.01,2013-02-09 06:52:00,
2013-02-09 01:57:00,37.2,26.2,29.97,North,355,0.0,0.0,64,0.00,,,0.00,0.00,VWS V14.01,2013-02-09 06:57:00,
2013-02-09 02:02:00,36.9,26.2,29.97,North,355,0.0,0.0,65,0.00,,,0.00,0.00,VWS V14.01,2013-02-09 07:02:00,
2013-02-09 02:07:00,36.6,26.3,29.97,North,355,0.0,0.0,66,0.00,,,0.00,0.00,VWS V14.01,2013-02-09 07:07:00,
2013-02-09 02:12:00,36.2,26.7,29.97,North,352,3.0,3.0,68,0.00,,,0.00,0.00,VWS V14.01,2013-02-09 07:12:00,
2013-02-09 02:17:00,36.0,26.5,29.97,NNW,331,1.0,2.0,68,0.00,,,0.00,0.00,VWS V14.01,2013-02-09 07:17:00,
2013-02-09 02:22:00,36.2,26.7,29.97,WNW,300,0.0,0.0,68,0.00,,,0.00,0.00,VWS V14.01,2013-02-09 07:22:00,
2013-02-09 02:27:00,36.0,26.5,29.97,WNW,300,0.0,0.0,68,0.00,,,0.00,0.00,VWS V14.01,2013-02-09 07:27:00,
2013-02-09 02:32:00,35.9,26.4,29.97,WNW,300,0.0,0.0,68,0.00,,,0.00,0.00,VWS V14.01,2013-02-09 07:32:00,
2013-02-09 02:37:00,35.6,26.5,29.97,WNW,300,1.0,1.0,69,0.00,,,0.00,0.00,VWS V14.01,2013-02-09 07:37:00,
2013-02-09 02:42:00,35.3,26.5,29.97,WNW,300,2.0,3.0,70,0.00,,,0.00,0.00,VWS V14.01,2013-02-09 07:42:00,
2013-02-09 02:47:00,35.3,26.5,29.96,WNW,287,0.0,0.0,70,0.00,,,0.00,0.00,VWS V14.01,2013-02-09 07:47:00,
2013-02-09 02:52:00,35.2,26.4,29.96,WNW,287,0.0,0.0,70,0.00,,,0.00,0.00,VWS V14.01,2013-02-09 07:52:00,
2013-02-09 02:57:00,35.0,26.6,29.96,WNW,287,0.0,0.0,71,0.00,,,0.00,0.00,VWS V14.01,2013-02-09 07:57:00,
2013-02-09 03:02:00,34.9,26.8,29.97,WNW,287,0.0,0.0,72,0.00,,,0.00,0.00,VWS V14.01,2013-02-09 08:02:00,
2013-02-09 03:07:00,34.6,26.9,29.97,WNW,287,0.0,0.0,73,0.00,,,0.00,0.00,VWS V14.01,2013-02-09 08:07:00,
2013-02-09 03:12:00,34.4,26.7,29.97,WNW,287,0.0,0.0,73,0.00,,,0.00,0.00,VWS V14.01,2013-02-09 08:12:00,
2013-02-09 03:17:00,34.1,26.7,29.97,WNW,287,0.0,0.0,74,0.00,,,0.00,0.00,VWS V14.01,2013-02-09 08:17:00,
2013-02-09 03:22:00,34.0,26.9,29.97,WNW,287,1.0,3.0,75,0.00,,,0.00,0.00,VWS V14.01,2013-02-09 08:22:00,
2013-02-09 03:27:00,33.8,26.7,29.97,WNW,282,0.0,1.0,75,0.00,,,0.00,0.00,VWS V14.01,2013-02-09 08:27:00,
2013-02-09 03:32:00,33.7,26.3,29.97,WNW,282,0.0,0.0,74,0.00,,,0.00,0.00,VWS V14.01,2013-02-09 08:32:00,
2013-02-09 03:37:00,34.0,27.2,29.97,NE,39,0.0,0.0,76,0.00,,,0.00,0.00,VWS V14.01,2013-02-09 08:37:00,
2013-02-09 03:42:00,34.0,27.6,29.97,NE,39,0.0,0.0,77,0.00,,,0.00,0.00,VWS V14.01,2013-02-09 08:42:00,
2013-02-09 03:47:00,33.7,27.6,29.97,West,277,1.0,2.0,78,0.00,,,0.00,0.00,VWS V14.01,2013-02-09 08:47:00,
2013-02-09 03:52:00,33.4,27.0,29.97,West,277,0.0,0.0,77,0.00,,,0.00,0.00,VWS V14.01,2013-02-09 08:52:00,
2013-02-09 03:57:00,33.2,26.5,29.97,West,277,0.0,0.0,76,0.00,,,0.00,0.00,VWS V14.01,2013-02-09 08:57:00,
2013-02-09 04:02:00,33.2,26.1,29.98,West,277,0.0,0.0,75,0.00,,,0.00,0.00,VWS V14.01,2013-02-09 09:02:00,
2013-02-09 04:07:00,33.1,26.7,29.98,West,277,0.0,0.0,77,0.00,,,0.00,0.00,VWS V14.01,2013-02-09 09:07:00,
2013-02-09 04:12:00,32.9,26.8,29.98,West,277,0.0,0.0,78,0.00,,,0.00,0.00,VWS V14.01,2013-02-09 09:12:00,
2013-02-09 04:17:00,32.5,26.7,30.00,West,277,0.0,0.0,79,0.00,,,0.00,0.00,VWS V14.01,2013-02-09 09:17:00,
2013-02-09 04:22:00,32.4,26.9,30.00,West,277,0.0,0.0,80,0.00,,,0.00,0.00,VWS V14.01,2013-02-09 09:22:00,
2013-02-09 04:27:00,32.1,26.9,30.00,West,277,0.0,0.0,81,0.00,,,0.00,0.00,VWS V14.01,2013-02-09 09:27:00,
2013-02-09 04:32:00,31.8,26.9,30.00,West,277,0.0,0.0,82,0.00,,,0.00,0.00,VWS V14.01,2013-02-09 09:32:00,
2013-02-09 04:37:00,31.5,26.6,30.00,West,277,0.0,0.0,82,0.00,,,0.00,0.00,VWS V14.01,2013-02-09 09:37:00,
2013-02-09 04:42:00,31.3,26.8,30.00,West,277,0.0,0.0,83,0.00,,,0.00,0.00,VWS V14.01,2013-02-09 09:42:00,
2013-02-09 04:47:00,31.2,26.9,30.02,West,277,0.0,0.0,84,0.00,,,0.00,0.00,VWS V14.01,2013-02-09 09:47:00,
2013-02-09 04:52:00,31.0,26.7,30.02,West,277,0.0,0.0,84,0.00,,,0.00,0.00,VWS V14.01,2013-02-09 09:52:00,
2013-02-09 04:57:00,30.7,26.5,30.02,West,277,0.0,0.0,84,0.00,,,0.00,0.00,VWS V14.01,2013-02-09 09:57:00,
2013-02-09 05:02:00,30.4,26.1,30.02,West,277,0.0,0.0,84,0.00,,,0.00,0.00,VWS V14.01,2013-02-09 10:02:00,
2013-02-09 05:07:00,30.1,26.1,30.02,West,277,0.0,0.0,85,0.00,,,0.00,0.00,VWS V14.01,2013-02-09 10:07:00,
2013-02-09 05:12:00,30.0,26.0,30.02,West,277,1.0,1.0,85,0.00,,,0.00,0.00,VWS V14.01,2013-02-09 10:12:00,
2013-02-09 05:17:00,29.7,25.8,30.03,West,277,0.0,0.0,85,0.00,,,0.00,0.00,VWS V14.01,2013-02-09 10:17:00,
2013-02-09 05:21:00,29.5,25.6,30.03,West,277,0.0,0.0,85,0.00,,,0.00,0.00,VWS V14.01,2013-02-09 10:21:00,
2013-02-09 05:26:00,29.5,25.6,30.03,West,277,1.0,3.0,85,0.00,,,0.00,0.00,VWS V14.01,2013-02-09 10:26:00,
2013-02-09 05:31:00,29.5,25.6,30.03,WNW,288,0.0,0.0,85,0.00,,,0.00,0.00,VWS V14.01,2013-02-09 10:31:00,
2013-02-09 05:36:00,29.7,25.5,30.03,WNW,288,0.0,0.0,84,0.00,,,0.00,0.00,VWS V14.01,2013-02-09 10:36:00,
2013-02-09 05:41:00,30.0,25.8,30.03,WNW,288,0.0,0.0,84,0.00,,,0.00,0.00,VWS V14.01,2013-02-09 10:41:00,
2013-02-09 05:46:00,30.0,25.8,30.05,WNW,288,0.0,0.0,84,0.00,,,0.00,0.00,VWS V14.01,2013-02-09 10:46:00,
2013-02-09 05:51:00,30.0,26.0,30.05,WNW,288,0.0,0.0,85,0.00,,,0.00,0.00,VWS V14.01,2013-02-09 10:51:00,
2013-02-09 05:56:00,29.8,25.9,30.05,WNW,288,0.0,0.0,85,0.00,,,0.00,0.00,VWS V14.01,2013-02-09 10:56:00,
2013-02-09 06:01:00,29.5,25.6,30.05,WNW,288,0.0,0.0,85,0.00,,,0.00,0.00,VWS V14.01,2013-02-09 11:01:00,
2013-02-09 06:06:00,29.4,25.5,30.05,WNW,288,0.0,0.0,85,0.00,,,0.00,0.00,VWS V14.01,2013-02-09 11:06:00,
2013-02-09 06:11:00,29.1,25.2,30.05,WNW,289,0.0,0.0,85,0.00,,,0.00,0.00,VWS V14.01,2013-02-09 11:11:00,
2013-02-09 06:16:00,29.0,25.1,30.06,WNW,289,0.0,0.0,85,0.00,,,0.00,0.00,VWS V14.01,2013-02-09 11:16:00,
2013-02-09 06:21:00,29.0,25.1,30.06,WNW,289,0.0,0.0,85,0.00,,,0.00,0.00,VWS V14.01,2013-02-09 11:21:00,
2013-02-09 06:26:00,29.0,24.8,30.06,WNW,289,0.0,0.0,84,0.00,,,0.00,0.00,VWS V14.01,2013-02-09 11:26:00,
2013-02-09 06:31:00,29.4,24.9,30.07,WNW,289,0.0,2.0,83,0.00,,,0.00,0.00,VWS V14.01,2013-02-09 11:31:00,
2013-02-09 06:36:00,29.8,24.7,30.07,WNW,289,0.0,0.0,81,0.00,,,0.00,0.00,VWS V14.01,2013-02-09 11:36:00,
2013-02-09 06:41:00,30.0,24.6,30.07,WNW,289,0.0,0.0,80,0.00,,,0.00,0.00,VWS V14.01,2013-02-09 11:41:00,
2013-02-09 06:46:00,30.1,24.4,30.08,WNW,288,0.0,0.0,79,0.00,,,0.00,0.00,VWS V14.01,2013-02-09 11:46:00,
2013-02-09 06:51:00,30.0,24.3,30.08,WNW,289,0.0,0.0,79,0.00,,,0.00,0.00,VWS V14.01,2013-02-09 11:51:00,
2013-02-09 06:56:00,29.7,24.0,30.08,WNW,289,0.0,0.0,79,0.00,,,0.00,0.00,VWS V14.01,2013-02-09 11:56:00,
2013-02-09 07:01:00,29.5,24.1,30.09,WNW,289,0.0,0.0,80,0.00,,,0.00,0.00,VWS V14.01,2013-02-09 12:01:00,
2013-02-09 07:06:00,29.4,24.3,30.09,WNW,289,0.0,0.0,81,0.00,,,0.00,0.00,VWS V14.01,2013-02-09 12:06:00,
2013-02-09 07:11:00,29.3,24.2,30.09,WNW,289,0.0,0.0,81,0.00,,,0.00,5.00,VWS V14.01,2013-02-09 12:11:00,
2013-02-09 07:16:00,29.0,24.2,30.10,WNW,289,0.0,0.0,82,0.00,,,0.00,9.00,VWS V14.01,2013-02-09 12:16:00,
2013-02-09 07:21:00,28.8,24.3,30.10,WNW,289,0.0,0.0,83,0.00,,,0.00,11.00,VWS V14.01,2013-02-09 12:21:00,
2013-02-09 07:26:00,28.5,24.0,30.10,WNW,288,0.0,0.0,83,0.00,,,0.00,12.00,VWS V14.01,2013-02-09 12:26:00,
2013-02-09 07:31:00,28.4,24.2,30.11,WNW,289,0.0,0.0,84,0.00,,,0.00,14.00,VWS V14.01,2013-02-09 12:31:00,
2013-02-09 07:36:00,28.4,24.2,30.11,WNW,289,0.0,0.0,84,0.00,,,0.00,18.00,VWS V14.01,2013-02-09 12:36:00,
2013-02-09 07:41:00,28.2,24.3,30.11,WNW,289,0.0,0.0,85,0.00,,,0.00,19.00,VWS V14.01,2013-02-09 12:41:00,
2013-02-09 07:46:00,28.2,24.3,30.13,WNW,289,0.0,0.0,85,0.00,,,0.00,21.00,VWS V14.01,2013-02-09 12:46:00,
2013-02-09 07:51:00,28.4,24.8,30.13,WNW,289,0.0,0.0,86,0.00,,,0.00,23.00,VWS V14.01,2013-02-09 12:51:00,
2013-02-09 07:56:00,28.5,25.1,30.13,NW,313,1.0,3.0,87,0.00,,,0.00,25.00,VWS V14.01,2013-02-09 12:56:00,
2013-02-09 08:01:00,29.0,25.6,30.14,NW,313,0.0,0.0,87,0.00,,,0.00,25.00,VWS V14.01,2013-02-09 13:01:00,
2013-02-09 08:06:00,29.4,26.0,30.14,WNW,295,0.0,2.0,87,0.00,,,0.00,26.00,VWS V14.01,2013-02-09 13:06:00,
2013-02-09 08:11:00,30.1,26.4,30.14,WNW,296,0.0,0.0,86,0.00,,,0.00,26.00,VWS V14.01,2013-02-09 13:11:00,
2013-02-09 08:16:00,30.7,26.5,30.15,NNW,335,1.0,1.0,84,0.00,,,0.00,28.00,VWS V14.01,2013-02-09 13:16:00,
2013-02-09 08:21:00,31.6,26.5,30.15,NW,326,5.0,6.0,81,0.00,,,0.00,28.00,VWS V14.01,2013-02-09 13:21:00,
2013-02-09 08:26:00,32.5,26.4,30.15,North,357,3.0,3.0,78,0.00,,,0.00,30.00,VWS V14.01,2013-02-09 13:26:00,
2013-02-09 08:31:00,33.5,26.1,30.16,WNW,293,4.0,5.0,74,0.00,,,0.00,30.00,VWS V14.01,2013-02-09 13:31:00,
2013-02-09 08:36:00,34.6,25.8,30.16,NNW,334,0.0,0.0,70,0.00,,,0.00,30.00,VWS V14.01,2013-02-09 13:36:00,
2013-02-09 08:41:00,35.5,25.3,30.16,North,0,0.0,3.0,66,0.00,,,0.00,30.00,VWS V14.01,2013-02-09 13:41:00,
2013-02-09 08:46:00,36.3,24.5,30.15,NNW,342,2.0,5.0,62,0.00,,,0.00,32.00,VWS V14.01,2013-02-09 13:46:00,
2013-02-09 08:51:00,37.0,24.4,30.15,North,349,5.0,5.0,60,0.00,,,0.00,32.00,VWS V14.01,2013-02-09 13:51:00,
2013-02-09 08:56:00,37.8,24.8,30.15,North,351,0.0,0.0,59,0.00,,,0.00,290.00,VWS V14.01,2013-02-09 13:56:00,
2013-02-09 09:01:00,38.6,24.3,30.16,North,0,5.0,6.0,56,0.00,,,0.00,313.00,VWS V14.01,2013-02-09 14:01:00,
2013-02-09 09:06:00,39.5,24.2,30.16,North,352,0.0,0.0,54,0.00,,,0.00,330.00,VWS V14.01,2013-02-09 14:06:00,
2013-02-09 09:11:00,40.2,24.5,30.16,North,349,4.0,5.0,53,0.00,,,0.00,350.00,VWS V14.01,2013-02-09 14:11:00,
2013-02-09 09:16:00,41.1,23.9,30.16,NNW,343,2.0,2.0,50,0.00,,,0.00,366.00,VWS V14.01,2013-02-09 14:16:00,
2013-02-09 09:21:00,41.5,22.8,30.16,North,358,7.0,12.0,47,0.00,,,0.00,380.00,VWS V14.01,2013-02-09 14:21:00,
2013-02-09 09:26:00,41.8,23.1,30.16,NNW,327,2.0,5.0,47,0.00,,,0.00,392.00,VWS V14.01,2013-02-09 14:26:00,
2013-02-09 09:31:00,42.1,21.8,30.16,North,351,9.0,9.0,44,0.00,,,0.00,408.00,VWS V14.01,2013-02-09 14:31:00,
2013-02-09 09:36:00,42.6,21.1,30.16,NNW,344,0.0,3.0,42,0.00,,,0.00,424.00,VWS V14.01,2013-02-09 14:36:00,
2013-02-09 09:41:00,43.2,21.1,30.16,North,356,14.0,14.0,41,0.00,,,0.00,438.00,VWS V14.01,2013-02-09 14:41:00,
2013-02-09 09:46:00,43.1,20.4,30.16,North,354,4.0,5.0,40,0.00,,,0.00,452.00,VWS V14.01,2013-02-09 14:46:00,
2013-02-09 09:51:00,43.3,20.0,30.16,NW,306,3.0,3.0,39,0.00,,,0.00,466.00,VWS V14.01,2013-02-09 14:51:00,
2013-02-09 09:56:00,43.5,20.2,30.16,NNW,332,6.0,6.0,39,0.00,,,0.00,476.00,VWS V14.01,2013-02-09 14:56:00,
2013-02-09 10:01:00,43.6,19.7,30.17,NNW,338,6.0,6.0,38,0.00,,,0.00,490.00,VWS V14.01,2013-02-09 15:01:00,
2013-02-09 10:06:00,43.8,19.2,30.17,North,7,9.0,9.0,37,0.00,,,0.00,504.00,VWS V14.01,2013-02-09 15:06:00,
2013-02-09 10:11:00,43.8,19.2,30.17,NNE,32,11.0,11.0,37,0.00,,,0.00,519.00,VWS V14.01,2013-02-09 15:11:00,
2013-02-09 10:16:00,43.9,19.3,30.17,WNW,289,4.0,4.0,37,0.00,,,0.00,527.00,VWS V14.01,2013-02-09 15:16:00,
2013-02-09 10:21:00,44.1,18.9,30.17,North,0,10.0,10.0,36,0.00,,,0.00,540.00,VWS V14.01,2013-02-09 15:21:00,
2013-02-09 10:26:00,44.1,19.5,30.17,NNW,348,7.0,7.0,37,0.00,,,0.00,554.00,VWS V14.01,2013-02-09 15:26:00,
2013-02-09 10:31:00,44.2,19.0,30.17,NW,325,4.0,11.0,36,0.00,,,0.00,561.00,VWS V14.01,2013-02-09 15:31:00,
2013-02-09 10:36:00,44.5,19.9,30.17,North,6,8.0,10.0,37,0.00,,,0.00,573.00,VWS V14.01,2013-02-09 15:36:00,
2013-02-09 10:41:00,44.8,18.8,30.17,NNW,334,9.0,9.0,35,0.00,,,0.00,582.00,VWS V14.01,2013-02-09 15:41:00,
2013-02-09 10:46:00,44.9,19.6,30.18,North,357,3.0,13.0,36,0.00,,,0.00,592.00,VWS V14.01,2013-02-09 15:46:00,
2013-02-09 10:51:00,45.2,19.2,30.18,North,0,11.0,12.0,35,0.00,,,0.00,603.00,VWS V14.01,2013-02-09 15:51:00,
2013-02-09 10:56:00,45.4,18.7,30.18,NNW,347,12.0,12.0,34,0.00,,,0.00,612.00,VWS V14.01,2013-02-09 15:56:00,
2013-02-09 11:01:00,45.7,19.6,30.19,North,0,1.0,6.0,35,0.00,,,0.00,622.00,VWS V14.01,2013-02-09 16:01:00,
2013-02-09 11:06:00,46.0,18.5,30.19,North,3,3.0,6.0,33,0.00,,,0.00,628.00,VWS V14.01,2013-02-09 16:06:00,
2013-02-09 11:11:00,46.2,19.4,30.19,North,352,8.0,12.0,34,0.00,,,0.00,636.00,VWS V14.01,2013-02-09 16:11:00,
2013-02-09 11:16:00,46.8,19.2,30.18,NNW,345,6.0,6.0,33,0.00,,,0.00,649.00,VWS V14.01,2013-02-09 16:16:00,
2013-02-09 11:21:00,46.7,18.4,30.18,North,0,0.0,3.0,32,0.00,,,0.00,656.00,VWS V14.01,2013-02-09 16:21:00,
2013-02-09 11:26:00,47.1,18.8,30.18,NNW,333,0.0,3.0,32,0.00,,,0.00,659.00,VWS V14.01,2013-02-09 16:26:00,
2013-02-09 11:31:00,47.3,18.2,30.18,North,357,13.0,13.0,31,0.00,,,0.00,664.00,VWS V14.01,2013-02-09 16:31:00,
2013-02-09 11:36:00,47.4,18.3,30.18,NW,311,4.0,10.0,31,0.00,,,0.00,673.00,VWS V14.01,2013-02-09 16:36:00,
2013-02-09 11:41:00,47.7,19.3,30.18,North,0,10.0,11.0,32,0.00,,,0.00,675.00,VWS V14.01,2013-02-09 16:41:00,
2013-02-09 11:46:00,48.0,18.1,30.18,NNW,334,6.0,11.0,30,0.00,,,0.00,682.00,VWS V14.01,2013-02-09 16:46:00,
2013-02-09 11:51:00,48.3,19.1,30.18,North,5,4.0,9.0,31,0.00,,,0.00,684.00,VWS V14.01,2013-02-09 16:51:00,
2013-02-09 11:56:00,48.8,18.8,30.18,North,7,7.0,10.0,30,0.00,,,0.00,693.00,VWS V14.01,2013-02-09 16:56:00,
2013-02-09 12:02:00,48.9,18.1,30.17,NNW,330,7.0,10.0,29,0.00,,,0.00,693.00,VWS V14.01,2013-02-09 17:02:00,
2013-02-09 12:07:00,49.2,18.3,30.17,WNW,300,10.0,12.0,29,0.00,,,0.00,696.00,VWS V14.01,2013-02-09 17:07:00,
2013-02-09 12:12:00,49.4,17.7,30.17,ENE,62,0.0,1.0,28,0.00,,,0.00,698.00,VWS V14.01,2013-02-09 17:12:00,
2013-02-09 12:17:00,49.8,18.0,30.17,North,0,10.0,10.0,28,0.00,,,0.00,701.00,VWS V14.01,2013-02-09 17:17:00,
2013-02-09 12:22:00,49.8,17.2,30.17,NNW,347,4.0,7.0,27,0.00,,,0.00,701.00,VWS V14.01,2013-02-09 17:22:00,
2013-02-09 12:27:00,49.9,18.9,30.17,NNW,328,10.0,13.0,29,0.00,,,0.00,701.00,VWS V14.01,2013-02-09 17:27:00,
2013-02-09 12:32:00,49.9,18.1,30.17,North,354,0.0,3.0,28,0.00,,,0.00,705.00,VWS V14.01,2013-02-09 17:32:00,
2013-02-09 12:37:00,50.2,18.4,30.17,WNW,293,1.0,6.0,28,0.00,,,0.00,705.00,VWS V14.01,2013-02-09 17:37:00,
2013-02-09 12:42:00,50.7,18.8,30.17,North,0,2.0,3.0,28,0.00,,,0.00,703.00,VWS V14.01,2013-02-09 17:42:00,
2013-02-09 12:47:00,50.7,18.0,30.17,NW,321,5.0,5.0,27,0.00,,,0.00,707.00,VWS V14.01,2013-02-09 17:47:00,
2013-02-09 12:52:00,50.7,18.8,30.17,NNW,347,0.0,3.0,28,0.00,,,0.00,707.00,VWS V14.01,2013-02-09 17:52:00,
2013-02-09 12:57:00,51.0,19.1,30.17,North,1,6.0,8.0,28,0.00,,,0.00,701.00,VWS V14.01,2013-02-09 17:57:00,
2013-02-09 13:02:00,51.0,18.2,30.17,WNW,289,10.0,11.0,27,0.00,,,0.00,701.00,VWS V14.01,2013-02-09 18:02:00,
2013-02-09 13:07:00,50.8,18.0,30.17,NW,324,4.0,7.0,27,0.00,,,0.00,700.00,VWS V14.01,2013-02-09 18:07:00,
2013-02-09 13:12:00,51.1,18.3,30.17,WNW,300,7.0,7.0,27,0.00,,,0.00,694.00,VWS V14.01,2013-02-09 18:12:00,
2013-02-09 13:17:00,51.6,18.7,30.16,North,0,10.0,14.0,27,0.00,,,0.00,691.00,VWS V14.01,2013-02-09 18:17:00,
2013-02-09 13:22:00,51.6,17.9,30.16,NNW,338,1.0,5.0,26,0.00,,,0.00,686.00,VWS V14.01,2013-02-09 18:22:00,
2013-02-09 13:27:00,51.9,19.0,30.16,NW,309,7.0,7.0,27,0.00,,,0.00,682.00,VWS V14.01,2013-02-09 18:27:00,
2013-02-09 13:32:00,52.2,19.2,30.16,NW,309,1.0,9.0,27,0.00,,,0.00,679.00,VWS V14.01,2013-02-09 18:32:00,
2013-02-09 13:37:00,52.5,18.6,30.16,NNW,330,5.0,8.0,26,0.00,,,0.00,673.00,VWS V14.01,2013-02-09 18:37:00,
2013-02-09 13:42:00,52.5,18.6,30.16,NNW,339,8.0,8.0,26,0.00,,,0.00,663.00,VWS V14.01,2013-02-09 18:42:00,
2013-02-09 13:47:00,52.5,19.5,30.16,North,0,1.0,1.0,27,0.00,,,0.00,659.00,VWS V14.01,2013-02-09 18:47:00,
2013-02-09 13:52:00,52.6,19.6,30.16,NNW,343,6.0,9.0,27,0.00,,,0.00,652.00,VWS V14.01,2013-02-09 18:52:00,
2013-02-09 13:57:00,52.6,16.9,30.16,WSW,239,6.0,11.0,24,0.00,,,0.00,647.00,VWS V14.01,2013-02-09 18:57:00,
2013-02-09 14:02:00,52.5,18.6,30.15,NE,47,0.0,5.0,26,0.00,,,0.00,638.00,VWS V14.01,2013-02-09 19:02:00,
2013-02-09 14:07:00,52.8,18.0,30.15,NW,311,3.0,5.0,25,0.00,,,0.00,633.00,VWS V14.01,2013-02-09 19:07:00,
2013-02-09 14:12:00,52.9,18.0,30.15,West,281,11.0,12.0,25,0.00,,,0.00,624.00,VWS V14.01,2013-02-09 19:12:00,
2013-02-09 14:17:00,52.9,19.0,30.16,NW,321,5.0,6.0,26,0.00,,,0.00,612.00,VWS V14.01,2013-02-09 19:17:00,
2013-02-09 14:22:00,53.2,18.3,30.16,North,358,7.0,9.0,25,0.00,,,0.00,603.00,VWS V14.01,2013-02-09 19:22:00,
2013-02-09 14:26:00,53.5,18.6,30.16,West,281,6.0,9.0,25,0.00,,,0.00,598.00,VWS V14.01,2013-02-09 19:26:00,
2013-02-09 14:31:00,53.6,16.7,30.16,North,358,7.0,9.0,23,0.00,,,0.00,587.00,VWS V14.01,2013-02-09 19:31:00,
2013-02-09 14:36:00,53.5,17.6,30.16,North,351,8.0,9.0,24,0.00,,,0.00,575.00,VWS V14.01,2013-02-09 19:36:00,
2013-02-09 14:41:00,53.5,17.6,30.16,NNW,332,0.0,5.0,24,0.00,,,0.00,564.00,VWS V14.01,2013-02-09 19:41:00,
2013-02-09 14:46:00,53.6,18.6,30.15,NW,304,6.0,9.0,25,0.00,,,0.00,555.00,VWS V14.01,2013-02-09 19:46:00,
2013-02-09 14:51:00,53.8,17.9,30.15,WNW,301,3.0,3.0,24,0.00,,,0.00,541.00,VWS V14.01,2013-02-09 19:51:00,
2013-02-09 14:56:00,53.8,17.9,30.15,North,1,6.0,6.0,24,0.00,,,0.00,534.00,VWS V14.01,2013-02-09 19:56:00,
2013-02-09 15:01:00,53.6,17.7,30.16,WNW,285,4.0,5.0,24,0.00,,,0.00,520.00,VWS V14.01,2013-02-09 20:01:00,
2013-02-09 15:06:00,53.6,16.7,30.16,WNW,285,0.0,2.0,23,0.00,,,0.00,512.00,VWS V14.01,2013-02-09 20:06:00,
2013-02-09 15:11:00,53.8,16.9,30.16,WNW,290,4.0,6.0,23,0.00,,,0.00,501.00,VWS V14.01,2013-02-09 20:11:00,
2013-02-09 15:16:00,54.1,18.1,30.16,West,272,3.0,7.0,24,0.00,,,0.00,504.00,VWS V14.01,2013-02-09 20:16:00,
2013-02-09 15:21:00,54.1,18.1,30.16,NNW,346,0.0,4.0,24,0.00,,,0.00,543.00,VWS V14.01,2013-02-09 20:21:00,
2013-02-09 15:26:00,53.9,17.0,30.16,NW,309,4.0,4.0,23,0.00,,,0.00,686.00,VWS V14.01,2013-02-09 20:26:00,
2013-02-09 15:31:00,53.9,17.0,30.16,NW,307,4.0,9.0,23,0.00,,,0.00,468.00,VWS V14.01,2013-02-09 20:31:00,
2013-02-09 15:36:00,53.9,15.9,30.16,West,278,2.0,4.0,22,0.00,,,0.00,443.00,VWS V14.01,2013-02-09 20:36:00,
2013-02-09 15:41:00,53.5,15.6,30.16,NW,309,10.0,10.0,22,0.00,,,0.00,424.00,VWS V14.01,2013-02-09 20:41:00,
2013-02-09 15:46:00,53.1,15.3,30.16,NW,312,7.0,8.0,22,0.00,,,0.00,403.00,VWS V14.01,2013-02-09 20:46:00,
2013-02-09 15:51:00,52.6,14.9,30.16,West,276,6.0,6.0,22,0.00,,,0.00,387.00,VWS V14.01,2013-02-09 20:51:00,
2013-02-09 15:56:00,52.3,14.6,30.16,North,8,3.0,5.0,22,0.00,,,0.00,54.00,VWS V14.01,2013-02-09 20:56:00,
2013-02-09 16:01:00,52.2,14.5,30.16,NNW,332,0.0,1.0,22,0.00,,,0.00,54.00,VWS V14.01,2013-02-09 21:01:00,
2013-02-09 16:06:00,52.0,16.4,30.16,North,356,5.0,5.0,24,0.00,,,0.00,53.00,VWS V14.01,2013-02-09 21:06:00,
2013-02-09 16:11:00,52.2,16.5,30.16,WNW,292,5.0,5.0,24,0.00,,,0.00,56.00,VWS V14.01,2013-02-09 21:11:00,
2013-02-09 16:16:00,52.2,15.5,30.16,North,349,10.0,10.0,23,0.00,,,0.00,53.00,VWS V14.01,2013-02-09 21:16:00,
2013-02-09 16:21:00,52.0,15.4,30.16,North,11,0.0,1.0,23,0.00,,,0.00,51.00,VWS V14.01,2013-02-09 21:21:00,
2013-02-09 16:26:00,51.7,15.1,30.16,NNW,346,4.0,5.0,23,0.00,,,0.00,51.00,VWS V14.01,2013-02-09 21:26:00,
2013-02-09 16:31:00,51.6,16.0,30.17,West,278,2.0,3.0,24,0.00,,,0.00,49.00,VWS V14.01,2013-02-09 21:31:00,
2013-02-09 16:36:00,51.4,15.8,30.17,North,352,0.0,6.0,24,0.00,,,0.00,47.00,VWS V14.01,2013-02-09 21:36:00,
2013-02-09 16:41:00,51.3,15.8,30.17,NNE,20,1.0,4.0,24,0.00,,,0.00,46.00,VWS V14.01,2013-02-09 21:41:00,
2013-02-09 16:46:00,51.0,15.5,30.17,North,8,0.0,1.0,24,0.00,,,0.00,42.00,VWS V14.01,2013-02-09 21:46:00,
2013-02-09 16:51:00,50.7,14.3,30.17,NW,317,2.0,3.0,23,0.00,,,0.00,40.00,VWS V14.01,2013-02-09 21:51:00,
2013-02-09 16:56:00,50.5,16.0,30.17,NNE,16,4.0,4.0,25,0.00,,,0.00,33.00,VWS V14.01,2013-02-09 21:56:00,
2013-02-09 17:01:00,50.4,15.0,30.18,NNW,338,0.0,0.0,24,0.00,,,0.00,32.00,VWS V14.01,2013-02-09 22:01:00,
2013-02-09 17:06:00,50.1,15.7,30.18,NNW,333,0.0,0.0,25,0.00,,,0.00,28.00,VWS V14.01,2013-02-09 22:06:00,
2013-02-09 17:11:00,49.9,15.5,30.18,NNW,333,0.0,1.0,25,0.00,,,0.00,23.00,VWS V14.01,2013-02-09 22:11:00,
2013-02-09 17:16:00,49.8,15.4,30.19,North,0,0.0,0.0,25,0.00,,,0.00,19.00,VWS V14.01,2013-02-09 22:16:00,
2013-02-09 17:21:00,49.5,16.0,30.19,WNW,299,4.0,5.0,26,0.00,,,0.00,16.00,VWS V14.01,2013-02-09 22:21:00,
2013-02-09 17:26:00,49.2,15.8,30.19,NNW,333,0.0,0.0,26,0.00,,,0.00,14.00,VWS V14.01,2013-02-09 22:26:00,
2013-02-09 17:31:00,48.9,15.5,30.19,NNW,335,0.0,0.0,26,0.00,,,0.00,12.00,VWS V14.01,2013-02-09 22:31:00,
2013-02-09 17:36:00,48.8,16.3,30.19,NNW,335,0.0,0.0,27,0.00,,,0.00,11.00,VWS V14.01,2013-02-09 22:36:00,
2013-02-09 17:41:00,48.3,15.9,30.19,NNW,335,0.0,0.0,27,0.00,,,0.00,9.00,VWS V14.01,2013-02-09 22:41:00,
2013-02-09 17:46:00,47.9,17.2,30.19,NNW,335,0.0,0.0,29,0.00,,,0.00,7.00,VWS V14.01,2013-02-09 22:46:00,
2013-02-09 17:51:00,47.1,18.0,30.19,NNW,335,0.0,0.0,31,0.00,,,0.00,0.00,VWS V14.01,2013-02-09 22:51:00,
2013-02-09 17:56:00,46.4,18.2,30.19,NNW,335,0.0,0.0,32,0.00,,,0.00,0.00,VWS V14.01,2013-02-09 22:56:00,
2013-02-09 18:01:00,45.7,20.3,30.20,NNW,335,0.0,0.0,36,0.00,,,0.00,0.00,VWS V14.01,2013-02-09 23:01:00,
2013-02-09 18:06:00,44.8,20.1,30.20,NNW,335,0.0,0.0,37,0.00,,,0.00,0.00,VWS V14.01,2013-02-09 23:06:00,
2013-02-09 18:11:00,43.9,20.6,30.20,NNW,335,0.0,0.0,39,0.00,,,0.00,0.00,VWS V14.01,2013-02-09 23:11:00,
2013-02-09 18:16:00,43.2,20.5,30.21,NNW,335,0.0,0.0,40,0.00,,,0.00,0.00,VWS V14.01,2013-02-09 23:16:00,
2013-02-09 18:21:00,42.5,21.6,30.21,NNW,335,0.0,0.0,43,0.00,,,0.00,0.00,VWS V14.01,2013-02-09 23:21:00,
2013-02-09 18:26:00,41.9,21.0,30.21,NNW,335,0.0,0.0,43,0.00,,,0.00,0.00,VWS V14.01,2013-02-09 23:26:00,
2013-02-09 18:31:00,41.2,21.5,30.21,NNW,335,0.0,0.0,45,0.00,,,0.00,0.00,VWS V14.01,2013-02-09 23:31:00,
2013-02-09 18:36:00,40.6,21.5,30.21,NNW,335,0.0,0.0,46,0.00,,,0.00,0.00,VWS V14.01,2013-02-09 23:36:00,
2013-02-09 18:41:00,40.1,22.5,30.21,NNW,335,0.0,0.0,49,0.00,,,0.00,0.00,VWS V14.01,2013-02-09 23:41:00,
2013-02-09 18:46:00,39.5,21.5,30.21,NNW,335,0.0,0.0,48,0.00,,,0.00,0.00,VWS V14.01,2013-02-09 23:46:00,
2013-02-09 18:51:00,38.9,22.3,30.21,NNW,335,0.0,0.0,51,0.00,,,0.00,0.00,VWS V14.01,2013-02-09 23:51:00,
2013-02-09 18:56:00,38.3,22.2,30.21,NNW,335,0.0,0.0,52,0.00,,,0.00,0.00,VWS V14.01,2013-02-09 23:56:00,
2013-02-09 19:01:00,37.9,23.6,30.21,NNW,335,0.0,0.0,56,0.00,,,0.00,0.00,VWS V14.01,2013-02-10 00:01:00,
2013-02-09 19:06:00,37.5,24.5,30.21,NNW,335,0.0,0.0,59,0.00,,,0.00,0.00,VWS V14.01,2013-02-10 00:06:00,
2013-02-09 19:11:00,37.2,25.0,30.21,NNW,335,0.0,0.0,61,0.00,,,0.00,0.00,VWS V14.01,2013-02-10 00:11:00,
2013-02-09 19:16:00,36.8,24.2,30.22,NNW,335,0.0,0.0,60,0.00,,,0.00,0.00,VWS V14.01,2013-02-10 00:16:00,
2013-02-09 19:21:00,36.3,23.8,30.22,NNW,335,0.0,0.0,60,0.00,,,0.00,0.00,VWS V14.01,2013-02-10 00:21:00,
2013-02-09 19:26:00,35.9,24.2,30.22,NNW,335,0.0,0.0,62,0.00,,,0.00,0.00,VWS V14.01,2013-02-10 00:26:00,
2013-02-09 19:31:00,35.6,23.9,30.22,NNW,335,0.0,0.0,62,0.00,,,0.00,0.00,VWS V14.01,2013-02-10 00:31:00,
2013-02-09 19:36:00,35.3,24.4,30.22,NNW,335,0.0,0.0,64,0.00,,,0.00,0.00,VWS V14.01,2013-02-10 00:36:00,
2013-02-09 19:41:00,34.9,24.7,30.22,NNW,335,0.0,0.0,66,0.00,,,0.00,0.00,VWS V14.01,2013-02-10 00:41:00,
2013-02-09 19:46:00,34.6,25.1,30.23,NNW,335,0.0,0.0,68,0.00,,,0.00,0.00,VWS V14.01,2013-02-10 00:46:00,
2013-02-09 19:51:00,34.4,25.0,30.23,NNW,335,0.0,0.0,68,0.00,,,0.00,0.00,VWS V14.01,2013-02-10 00:51:00,
2013-02-09 19:56:00,34.1,23.6,30.23,NNW,335,0.0,0.0,65,0.00,,,0.00,0.00,VWS V14.01,2013-02-10 00:56:00,
2013-02-09 20:01:00,34.1,23.2,30.24,NNW,335,0.0,0.0,64,0.00,,,0.00,0.00,VWS V14.01,2013-02-10 01:01:00,
2013-02-09 20:06:00,33.8,22.9,30.24,NNW,335,0.0,0.0,64,0.00,,,0.00,0.00,VWS V14.01,2013-02-10 01:06:00,
2013-02-09 20:11:00,33.5,22.6,30.24,NNW,335,0.0,0.0,64,0.00,,,0.00,0.00,VWS V14.01,2013-02-10 01:11:00,
2013-02-09 20:16:00,33.2,22.4,30.24,NNW,335,0.0,0.0,64,0.00,,,0.00,0.00,VWS V14.01,2013-02-10 01:16:00,
2013-02-09 20:21:00,32.9,22.4,30.24,NNW,335,0.0,0.0,65,0.00,,,0.00,0.00,VWS V14.01,2013-02-10 01:21:00,
2013-02-09 20:26:00,32.8,23.4,30.24,NNW,335,0.0,0.0,68,0.00,,,0.00,0.00,VWS V14.01,2013-02-10 01:26:00,
2013-02-09 20:31:00,32.7,24.4,30.24,NNW,335,0.0,0.0,71,0.00,,,0.00,0.00,VWS V14.01,2013-02-10 01:31:00,
2013-02-09 20:36:00,32.7,24.7,30.24,NNW,335,0.0,0.0,72,0.00,,,0.00,0.00,VWS V14.01,2013-02-10 01:36:00,
2013-02-09 20:41:00,32.4,24.7,30.24,NNW,335,0.0,0.0,73,0.00,,,0.00,0.00,VWS V14.01,2013-02-10 01:41:00,
2013-02-09 20:46:00,32.1,24.8,30.25,NNW,335,0.0,0.0,74,0.00,,,0.00,0.00,VWS V14.01,2013-02-10 01:46:00,
2013-02-09 20:51:00,32.1,25.1,30.25,NNW,335,0.0,0.0,75,0.00,,,0.00,0.00,VWS V14.01,2013-02-10 01:51:00,
2013-02-09 20:56:00,32.1,24.8,30.25,NNW,335,0.0,0.0,74,0.00,,,0.00,0.00,VWS V14.01,2013-02-10 01:56:00,
2013-02-09 21:01:00,31.9,24.6,30.25,NNW,335,0.0,0.0,74,0.00,,,0.00,0.00,VWS V14.01,2013-02-10 02:01:00,
2013-02-09 21:06:00,31.6,24.3,30.25,NNW,335,0.0,0.0,74,0.00,,,0.00,0.00,VWS V14.01,2013-02-10 02:06:00,
2013-02-09 21:11:00,31.5,23.9,30.25,NNW,335,0.0,0.0,73,0.00,,,0.00,0.00,VWS V14.01,2013-02-10 02:11:00,
2013-02-09 21:16:00,31.0,23.7,30.25,NNW,335,0.0,0.0,74,0.00,,,0.00,0.00,VWS V14.01,2013-02-10 02:16:00,
2013-02-09 21:21:00,30.7,23.4,30.25,NNW,335,0.0,0.0,74,0.00,,,0.00,0.00,VWS V14.01,2013-02-10 02:21:00,
2013-02-09 21:26:00,30.4,23.4,30.25,NNW,335,0.0,0.0,75,0.00,,,0.00,0.00,VWS V14.01,2013-02-10 02:26:00,
2013-02-09 21:31:00,30.3,23.7,30.25,NNW,335,0.0,0.0,76,0.00,,,0.00,0.00,VWS V14.01,2013-02-10 02:31:00,
2013-02-09 21:36:00,30.1,23.5,30.25,NNW,335,0.0,0.0,76,0.00,,,0.00,0.00,VWS V14.01,2013-02-10 02:36:00,
2013-02-09 21:41:00,30.1,23.8,30.25,NNW,335,0.0,0.0,77,0.00,,,0.00,0.00,VWS V14.01,2013-02-10 02:41:00,
2013-02-09 21:46:00,30.1,24.1,30.26,NNW,335,0.0,0.0,78,0.00,,,0.00,0.00,VWS V14.01,2013-02-10 02:46:00,
2013-02-09 21:51:00,30.0,24.3,30.26,NNW,335,0.0,0.0,79,0.00,,,0.00,0.00,VWS V14.01,2013-02-10 02:51:00,
2013-02-09 21:56:00,29.8,24.4,30.26,NNW,335,0.0,0.0,80,0.00,,,0.00,0.00,VWS V14.01,2013-02-10 02:56:00,
2013-02-09 22:01:00,29.7,24.3,30.27,NNW,335,0.0,0.0,80,0.00,,,0.00,0.00,VWS V14.01,2013-02-10 03:01:00,
2013-02-09 22:06:00,29.5,24.1,30.27,NNW,335,0.0,0.0,80,0.00,,,0.00,0.00,VWS V14.01,2013-02-10 03:06:00,
2013-02-09 22:11:00,29.5,24.4,30.27,NNW,335,0.0,0.0,81,0.00,,,0.00,0.00,VWS V14.01,2013-02-10 03:11:00,
2013-02-09 22:16:00,29.4,24.6,30.27,NNW,335,0.0,0.0,82,0.00,,,0.00,0.00,VWS V14.01,2013-02-10 03:16:00,
2013-02-09 22:21:00,29.3,24.5,30.27,NNW,335,0.0,0.0,82,0.00,,,0.00,0.00,VWS V14.01,2013-02-10 03:21:00,
2013-02-09 22:26:00,29.1,24.3,30.27,NNW,335,0.0,0.0,82,0.00,,,0.00,0.00,VWS V14.01,2013-02-10 03:26:00,
2013-02-09 22:31:00,28.8,24.0,30.27,NNW,335,0.0,0.0,82,0.00,,,0.00,0.00,VWS V14.01,2013-02-10 03:31:00,
2013-02-09 22:36:00,28.7,23.9,30.27,NNW,335,0.0,0.0,82,0.00,,,0.00,0.00,VWS V14.01,2013-02-10 03:36:00,
2013-02-09 22:41:00,28.4,23.6,30.27,NNW,335,0.0,0.0,82,0.00,,,0.00,0.00,VWS V14.01,2013-02-10 03:41:00,
2013-02-09 22:46:00,28.4,23.9,30.26,NNW,335,0.0,0.0,83,0.00,,,0.00,0.00,VWS V14.01,2013-02-10 03:46:00,
2013-02-09 22:51:00,28.4,23.9,30.26,NNW,335,0.0,0.0,83,0.00,,,0.00,0.00,VWS V14.01,2013-02-10 03:51:00,
2013-02-09 22:56:00,28.2,23.7,30.26,NNW,335,0.0,0.0,83,0.00,,,0.00,0.00,VWS V14.01,2013-02-10 03:56:00,
2013-02-09 23:01:00,27.9,23.4,30.27,NNW,335,0.0,0.0,83,0.00,,,0.00,0.00,VWS V14.01,2013-02-10 04:01:00,
2013-02-09 23:06:00,27.9,23.7,30.27,NNW,335,0.0,0.0,84,0.00,,,0.00,0.00,VWS V14.01,2013-02-10 04:06:00,
2013-02-09 23:11:00,27.9,23.7,30.27,NNW,335,0.0,0.0,84,0.00,,,0.00,0.00,VWS V14.01,2013-02-10 04:11:00,
2013-02-09 23:16:00,27.8,23.6,30.27,NNW,335,0.0,0.0,84,0.00,,,0.00,0.00,VWS V14.01,2013-02-10 04:16:00,
2013-02-09 23:21:00,27.6,23.4,30.27,NNW,335,0.0,0.0,84,0.00,,,0.00,0.00,VWS V14.01,2013-02-10 04:21:00,
2013-02-09 23:26:00,27.3,23.1,30.27,NNW,335,0.0,0.0,84,0.00,,,0.00,0.00,VWS V14.01,2013-02-10 04:26:00,
2013-02-09 23:31:00,27.2,23.0,30.27,NNW,335,0.0,0.0,84,0.00,,,0.00,0.00,VWS V14.01,2013-02-10 04:31:00,
2013-02-09 23:36:00,27.3,23.4,30.27,NNW,335,0.0,0.0,85,0.00,,,0.00,0.00,VWS V14.01,2013-02-10 04:36:00,
2013-02-09 23:41:00,27.5,23.6,30.27,NNW,335,0.0,0.0,85,0.00,,,0.00,0.00,VWS V14.01,2013-02-10 04:41:00,
2013-02-09 23:46:00,27.5,23.6,30.27,NNW,335,0.0,0.0,85,0.00,,,0.00,0.00,VWS V14.01,2013-02-10 04:46:00,
2013-02-09 23:51:00,27.5,23.9,30.27,NNW,335,0.0,0.0,86,0.00,,,0.00,0.00,VWS V14.01,2013-02-10 04:51:00,
2013-02-09 23:56:00,27.3,23.7,30.27,NNW,335,0.0,0.0,86,0.00,,,0.00,0.00,VWS V14.01,2013-02-10 04:56:00,